sensor_id;sensor_type;location;lat;lon;timestamp;pressure;altitude;pressure_sealevel;temperature;humidity
21273;BME280;36726;52.328;10.552;2023-02-12T00:02:16;102498.44;;;8.05;100.00
21273;BME280;36726;52.328;10.552;2023-02-12T00:04:42;102504.44;;;8.02;100.00
21273;BME280;36726;52.328;10.552;2023-02-12T00:07:09;102502.72;;;8.03;100.00
21273;BME280;36726;52.328;10.552;2023-02-12T00:09:36;102504.56;;;8.05;100.00
21273;BME280;36726;52.328;10.552;2023-02-12T00:12:02;102501.94;;;8.05;100.00
21273;BME280;36726;52.328;10.552;2023-02-12T00:14:29;102505.50;;;8.06;100.00
21273;BME280;36726;52.328;10.552;2023-02-12T00:16:56;102508.13;;;8.06;100.00
21273;BME280;36726;52.328;10.552;2023-02-12T00:19:22;102507.31;;;8.07;100.00
21273;BME280;36726;52.328;10.552;2023-02-12T00:21:49;102508.13;;;8.06;100.00
21273;BME280;36726;52.328;10.552;2023-02-12T00:24:16;102509.97;;;8.07;100.00
21273;BME280;36726;52.328;10.552;2023-02-12T00:26:42;102515.13;;;8.05;100.00
21273;BME280;36726;52.328;10.552;2023-02-12T00:29:09;102511.59;;;8.05;100.00
21273;BME280;36726;52.328;10.552;2023-02-12T00:31:36;102509.03;;;8.06;100.00
21273;BME280;36726;52.328;10.552;2023-02-12T00:34:03;102509.13;;;8.08;100.00
21273;BME280;36726;52.328;10.552;2023-02-12T00:36:30;102508.13;;;8.06;100.00
21273;BME280;36726;52.328;10.552;2023-02-12T00:38:58;102509.84;;;8.05;100.00
21273;BME280;36726;52.328;10.552;2023-02-12T00:41:25;102512.41;;;8.04;100.00
21273;BME280;36726;52.328;10.552;2023-02-12T00:43:52;102513.41;;;8.06;100.00
21273;BME280;36726;52.328;10.552;2023-02-12T00:46:19;102515.13;;;8.05;100.00
21273;BME280;36726;52.328;10.552;2023-02-12T00:48:47;102520.50;;;8.07;100.00
21273;BME280;36726;52.328;10.552;2023-02-12T00:51:13;102520.50;;;8.07;100.00
21273;BME280;36726;52.328;10.552;2023-02-12T00:53:40;102528.50;;;8.08;100.00
21273;BME280;36726;52.328;10.552;2023-02-12T00:56:07;102528.56;;;8.10;100.00
21273;BME280;36726;52.328;10.552;2023-02-12T00:58:33;102524.22;;;8.10;100.00
21273;BME280;36726;52.328;10.552;2023-02-12T01:01:00;102529.47;;;8.10;100.00
21273;BME280;36726;52.328;10.552;2023-02-12T01:03:27;102530.28;;;8.09;100.00
21273;BME280;36726;52.328;10.552;2023-02-12T01:05:53;102532.91;;;8.09;100.00
21273;BME280;36726;52.328;10.552;2023-02-12T01:08:20;102533.84;;;8.10;100.00
21273;BME280;36726;52.328;10.552;2023-02-12T01:11:03;102530.28;;;8.09;100.00
21273;BME280;36726;52.328;10.552;2023-02-12T01:13:30;102533.84;;;8.10;100.00
21273;BME280;36726;52.328;10.552;2023-02-12T01:16:07;102534.75;;;8.10;100.00
21273;BME280;36726;52.328;10.552;2023-02-12T01:18:36;102528.56;;;8.10;100.00
21273;BME280;36726;52.328;10.552;2023-02-12T01:21:27;102541.75;;;8.10;100.00
21273;BME280;36726;52.328;10.552;2023-02-12T01:23:55;102532.91;;;8.09;100.00
21273;BME280;36726;52.328;10.552;2023-02-12T01:26:23;102540.75;;;8.08;100.00
21273;BME280;36726;52.328;10.552;2023-02-12T01:28:52;102525.78;;;8.07;100.00
21273;BME280;36726;52.328;10.552;2023-02-12T01:31:22;102531.03;;;8.07;100.00
21273;BME280;36726;52.328;10.552;2023-02-12T01:33:52;102532.75;;;8.06;100.00
21273;BME280;36726;52.328;10.552;2023-02-12T01:36:19;102526.59;;;8.06;100.00
21273;BME280;36726;52.328;10.552;2023-02-12T01:38:47;102535.31;;;8.05;100.00
21273;BME280;36726;52.328;10.552;2023-02-12T01:41:17;102534.34;;;8.03;100.00
21273;BME280;36726;52.328;10.552;2023-02-12T01:43:45;102534.34;;;8.03;100.00
21273;BME280;36726;52.328;10.552;2023-02-12T01:46:13;102537.78;;;8.02;100.00
21273;BME280;36726;52.328;10.552;2023-02-12T01:48:44;102533.34;;;8.01;100.00
21273;BME280;36726;52.328;10.552;2023-02-12T01:51:15;102529.72;;;7.99;100.00
21273;BME280;36726;52.328;10.552;2023-02-12T01:53:48;102529.72;;;7.99;100.00
21273;BME280;36726;52.328;10.552;2023-02-12T01:56:16;102530.63;;;7.99;100.00
21273;BME280;36726;52.328;10.552;2023-02-12T01:58:45;102535.91;;;7.99;100.00
21273;BME280;36726;52.328;10.552;2023-02-12T02:01:17;102534.06;;;7.98;100.00
21273;BME280;36726;52.328;10.552;2023-02-12T02:03:49;102531.34;;;7.97;100.00
21273;BME280;36726;52.328;10.552;2023-02-12T02:06:27;102541.91;;;7.97;100.00
21273;BME280;36726;52.328;10.552;2023-02-12T02:08:59;102525.16;;;7.96;100.00
21273;BME280;36726;52.328;10.552;2023-02-12T02:11:26;102526.00;;;7.95;100.00
21273;BME280;36726;52.328;10.552;2023-02-12T02:14:11;102531.28;;;7.95;100.00
21273;BME280;36726;52.328;10.552;2023-02-12T02:19:49;102530.13;;;7.90;100.00
21273;BME280;36726;52.328;10.552;2023-02-12T02:22:33;102531.00;;;7.91;100.00
21273;BME280;36726;52.328;10.552;2023-02-12T02:34:00;102543.53;;;7.95;100.00
21273;BME280;36726;52.328;10.552;2023-02-12T02:36:42;102540.09;;;7.96;100.00
21273;BME280;36726;52.328;10.552;2023-02-12T02:39:35;102539.25;;;7.97;100.00
21273;BME280;36726;52.328;10.552;2023-02-12T02:42:17;102546.44;;;7.99;100.00
21273;BME280;36726;52.328;10.552;2023-02-12T02:44:57;102541.25;;;8.01;100.00
21273;BME280;36726;52.328;10.552;2023-02-12T02:47:33;102536.97;;;8.03;100.00
21273;BME280;36726;52.328;10.552;2023-02-12T02:50:16;102541.47;;;8.05;100.00
21273;BME280;36726;52.328;10.552;2023-02-12T02:52:48;102545.88;;;8.05;100.00
21273;BME280;36726;52.328;10.552;2023-02-12T02:55:17;102546.03;;;8.08;100.00
21273;BME280;36726;52.328;10.552;2023-02-12T02:57:53;102554.75;;;8.07;100.00
21273;BME280;36726;52.328;10.552;2023-02-12T03:00:34;102556.56;;;8.08;100.00
21273;BME280;36726;52.328;10.552;2023-02-12T03:03:27;102554.00;;;8.09;100.00
21273;BME280;36726;52.328;10.552;2023-02-12T03:06:02;102552.28;;;8.10;100.00
21273;BME280;36726;52.328;10.552;2023-02-12T03:08:39;102552.28;;;8.10;100.00
21273;BME280;36726;52.328;10.552;2023-02-12T03:11:14;102565.47;;;8.10;100.00
21273;BME280;36726;52.328;10.552;2023-02-12T03:13:47;102562.00;;;8.11;100.00
21273;BME280;36726;52.328;10.552;2023-02-12T03:16:25;102562.97;;;8.13;100.00
21273;BME280;36726;52.328;10.552;2023-02-12T03:18:57;102562.97;;;8.13;100.00
21273;BME280;36726;52.328;10.552;2023-02-12T03:21:39;102565.53;;;8.11;100.00
21273;BME280;36726;52.328;10.552;2023-02-12T03:24:16;102569.03;;;8.10;100.00
21273;BME280;36726;52.328;10.552;2023-02-12T03:26:48;102570.72;;;8.10;100.00
21273;BME280;36726;52.328;10.552;2023-02-12T03:29:16;102576.72;;;8.07;100.00
21273;BME280;36726;52.328;10.552;2023-02-12T03:37:42;102578.22;;;8.02;100.00
21273;BME280;36726;52.328;10.552;2023-02-12T03:43:18;102586.19;;;8.04;100.00
21273;BME280;36726;52.328;10.552;2023-02-12T03:48:37;102584.41;;;8.03;100.00
21273;BME280;36726;52.328;10.552;2023-02-12T03:51:17;102587.91;;;8.03;100.00
21273;BME280;36726;52.328;10.552;2023-02-12T03:53:46;102584.41;;;8.03;100.00
21273;BME280;36726;52.328;10.552;2023-02-12T03:56:18;102589.75;;;8.04;100.00
21273;BME280;36726;52.328;10.552;2023-02-12T03:58:45;102602.22;;;8.07;100.00
21273;BME280;36726;52.328;10.552;2023-02-12T04:01:12;102596.94;;;8.07;100.00
21273;BME280;36726;52.328;10.552;2023-02-12T04:03:40;102596.94;;;8.07;100.00
21273;BME280;36726;52.328;10.552;2023-02-12T04:06:21;102594.31;;;8.07;100.00
21273;BME280;36726;52.328;10.552;2023-02-12T04:08:48;102603.09;;;8.07;100.00
21273;BME280;36726;52.328;10.552;2023-02-12T04:11:29;102605.00;;;8.10;100.00
21273;BME280;36726;52.328;10.552;2023-02-12T04:16:50;102605.81;;;8.09;100.00
21273;BME280;36726;52.328;10.552;2023-02-12T04:19:31;102604.16;;;8.11;100.00
21273;BME280;36726;52.328;10.552;2023-02-12T04:22:13;102606.06;;;8.13;100.00
21273;BME280;36726;52.328;10.552;2023-02-12T04:25:03;102605.34;;;8.16;100.00
21273;BME280;36726;52.328;10.552;2023-02-12T04:28:02;102611.44;;;8.15;100.00
21273;BME280;36726;52.328;10.552;2023-02-12T04:30:45;102607.88;;;8.14;100.00
21273;BME280;36726;52.328;10.552;2023-02-12T04:33:17;102619.34;;;8.15;100.00
21273;BME280;36726;52.328;10.552;2023-02-12T04:35:50;102622.88;;;8.15;100.00
21273;BME280;36726;52.328;10.552;2023-02-12T04:38:35;102623.81;;;8.16;100.00
21273;BME280;36726;52.328;10.552;2023-02-12T04:41:06;102615.91;;;8.16;100.00
21273;BME280;36726;52.328;10.552;2023-02-12T04:43:36;102624.69;;;8.16;100.00
21273;BME280;36726;52.328;10.552;2023-02-12T04:46:05;102636.88;;;8.14;100.00
21273;BME280;36726;52.328;10.552;2023-02-12T04:48:32;102631.53;;;8.13;100.00
21273;BME280;36726;52.328;10.552;2023-02-12T04:51:00;102630.59;;;8.12;100.00
21273;BME280;36726;52.328;10.552;2023-02-12T04:53:27;102642.91;;;8.12;100.00
21273;BME280;36726;52.328;10.552;2023-02-12T04:55:54;102638.34;;;8.09;100.00
21273;BME280;36726;52.328;10.552;2023-02-12T04:58:21;102637.34;;;8.07;100.00
21273;BME280;36726;52.328;10.552;2023-02-12T05:00:48;102632.00;;;8.06;100.00
21273;BME280;36726;52.328;10.552;2023-02-12T05:03:14;102639.84;;;8.04;100.00
21273;BME280;36726;52.328;10.552;2023-02-12T05:05:41;102637.13;;;8.03;100.00
21273;BME280;36726;52.328;10.552;2023-02-12T05:08:07;102635.28;;;8.02;100.00
21273;BME280;36726;52.328;10.552;2023-02-12T05:10:34;102637.13;;;8.03;100.00
21273;BME280;36726;52.328;10.552;2023-02-12T05:13:00;102641.31;;;7.99;100.00
21273;BME280;36726;52.328;10.552;2023-02-12T05:15:26;102636.84;;;7.98;100.00
21273;BME280;36726;52.328;10.552;2023-02-12T05:17:53;102638.59;;;7.98;100.00
21273;BME280;36726;52.328;10.552;2023-02-12T05:20:20;102647.31;;;7.97;100.00
21273;BME280;36726;52.328;10.552;2023-02-12T05:22:50;102647.16;;;7.94;100.00
21273;BME280;36726;52.328;10.552;2023-02-12T05:25:17;102643.44;;;7.90;100.00
21273;BME280;36726;52.328;10.552;2023-02-12T05:27:43;102648.63;;;7.89;100.00
21273;BME280;36726;52.328;10.552;2023-02-12T05:30:10;102649.41;;;7.88;100.00
21273;BME280;36726;52.328;10.552;2023-02-12T05:32:37;102648.44;;;7.86;100.00
21273;BME280;36726;52.328;10.552;2023-02-12T05:35:04;102648.25;;;7.83;100.00
21273;BME280;36726;52.328;10.552;2023-02-12T05:37:35;102651.91;;;7.85;100.00
21273;BME280;36726;52.328;10.552;2023-02-12T05:40:05;102654.53;;;7.85;100.00
21273;BME280;36726;52.328;10.552;2023-02-12T05:42:32;102657.09;;;7.83;100.00
21273;BME280;36726;52.328;10.552;2023-02-12T05:44:58;102655.31;;;7.84;100.00
21273;BME280;36726;52.328;10.552;2023-02-12T05:47:25;102658.81;;;7.83;100.00
21273;BME280;36726;52.328;10.552;2023-02-12T05:49:51;102664.22;;;7.86;100.00
21273;BME280;36726;52.328;10.552;2023-02-12T05:52:18;102661.59;;;7.86;100.00
21273;BME280;36726;52.328;10.552;2023-02-12T05:54:48;102662.59;;;7.88;100.00
21273;BME280;36726;52.328;10.552;2023-02-12T05:57:14;102669.69;;;7.89;100.00
21273;BME280;36726;52.328;10.552;2023-02-12T05:59:41;102673.31;;;7.91;100.00
21273;BME280;36726;52.328;10.552;2023-02-12T06:02:07;102663.75;;;7.93;100.00
21273;BME280;36726;52.328;10.552;2023-02-12T06:04:36;102675.28;;;7.95;100.00
21273;BME280;36726;52.328;10.552;2023-02-12T06:07:03;102670.03;;;7.95;100.00
21273;BME280;36726;52.328;10.552;2023-02-12T06:09:29;102671.84;;;7.96;100.00
21273;BME280;36726;52.328;10.552;2023-02-12T06:11:56;102672.94;;;7.99;100.00
21273;BME280;36726;52.328;10.552;2023-02-12T06:14:22;102669.53;;;8.02;100.00
21273;BME280;36726;52.328;10.552;2023-02-12T06:16:50;102670.75;;;8.07;100.00
21273;BME280;36726;52.328;10.552;2023-02-12T06:19:18;102672.53;;;8.08;100.00
21273;BME280;36726;52.328;10.552;2023-02-12T06:21:45;102673.63;;;8.11;100.00
21273;BME280;36726;52.328;10.552;2023-02-12T06:24:13;102676.34;;;8.13;100.00
21273;BME280;36726;52.328;10.552;2023-02-12T06:26:40;102674.53;;;8.12;100.00
21273;BME280;36726;52.328;10.552;2023-02-12T06:29:08;102685.88;;;8.11;100.00
21273;BME280;36726;52.328;10.552;2023-02-12T06:31:35;102676.16;;;8.10;100.00
21273;BME280;36726;52.328;10.552;2023-02-12T06:34:04;102680.59;;;8.11;100.00
21273;BME280;36726;52.328;10.552;2023-02-12T06:36:32;102693.97;;;8.14;100.00
21273;BME280;36726;52.328;10.552;2023-02-12T06:39:02;102687.88;;;8.15;100.00
21273;BME280;36726;52.328;10.552;2023-02-12T06:41:29;102686.97;;;8.14;100.00
21273;BME280;36726;52.328;10.552;2023-02-12T06:43:55;102683.31;;;8.12;100.00
21273;BME280;36726;52.328;10.552;2023-02-12T06:46:22;102690.44;;;8.13;100.00
21273;BME280;36726;52.328;10.552;2023-02-12T06:48:52;102691.44;;;8.15;100.00
21273;BME280;36726;52.328;10.552;2023-02-12T06:51:20;102698.69;;;8.19;100.00
21273;BME280;36726;52.328;10.552;2023-02-12T06:53:51;102697.03;;;8.21;100.00
21273;BME280;36726;52.328;10.552;2023-02-12T06:56:19;102706.03;;;8.25;100.00
21273;BME280;36726;52.328;10.552;2023-02-12T06:58:50;102706.03;;;8.25;100.00
21273;BME280;36726;52.328;10.552;2023-02-12T07:01:22;102706.16;;;8.26;100.00
21273;BME280;36726;52.328;10.552;2023-02-12T07:03:51;102711.50;;;8.28;100.00
21273;BME280;36726;52.328;10.552;2023-02-12T07:06:19;102703.75;;;8.31;100.00
21273;BME280;36726;52.328;10.552;2023-02-12T07:08:46;102714.47;;;8.34;100.00
21273;BME280;36726;52.328;10.552;2023-02-12T07:11:12;102715.66;;;8.39;100.00
21273;BME280;36726;52.328;10.552;2023-02-12T07:13:39;102710.53;;;8.42;100.00
21273;BME280;36726;52.328;10.552;2023-02-12T07:16:09;102715.81;;;8.42;100.00
21273;BME280;36726;52.328;10.552;2023-02-12T07:18:38;102712.19;;;8.40;100.00
21273;BME280;36726;52.328;10.552;2023-02-12T07:21:07;102720.09;;;8.40;100.00
21273;BME280;36726;52.328;10.552;2023-02-12T07:23:34;102721.91;;;8.41;100.00
21273;BME280;36726;52.328;10.552;2023-02-12T07:26:03;102716.66;;;8.41;100.00
21273;BME280;36726;52.328;10.552;2023-02-12T07:28:30;102714.97;;;8.43;100.00
21273;BME280;36726;52.328;10.552;2023-02-12T07:31:05;102715.91;;;8.44;100.00
21273;BME280;36726;52.328;10.552;2023-02-12T07:33:33;102724.63;;;8.43;100.00
21273;BME280;36726;52.328;10.552;2023-02-12T07:36:00;102735.91;;;8.40;100.00
21273;BME280;36726;52.328;10.552;2023-02-12T07:38:27;102730.63;;;8.40;100.00
21273;BME280;36726;52.328;10.552;2023-02-12T07:43:40;102736.47;;;8.34;100.00
21273;BME280;36726;52.328;10.552;2023-02-12T07:46:15;102737.31;;;8.33;100.00
21273;BME280;36726;52.328;10.552;2023-02-12T07:48:43;102742.59;;;8.33;100.00
21273;BME280;36726;52.328;10.552;2023-02-12T07:51:14;102746.22;;;8.35;100.00
21273;BME280;36726;52.328;10.552;2023-02-12T07:53:41;102745.38;;;8.36;100.00
21273;BME280;36726;52.328;10.552;2023-02-12T07:56:11;102743.03;;;8.41;100.00
21273;BME280;36726;52.328;10.552;2023-02-12T08:01:45;102744.63;;;8.54;100.00
21273;BME280;36726;52.328;10.552;2023-02-12T08:04:14;102759.88;;;8.59;100.00
21273;BME280;36726;52.328;10.552;2023-02-12T08:06:44;102758.03;;;8.58;100.00
21273;BME280;36726;52.328;10.552;2023-02-12T08:09:14;102761.66;;;8.60;100.00
21273;BME280;36726;52.328;10.552;2023-02-12T08:11:42;102751.13;;;8.60;100.00
21273;BME280;36726;52.328;10.552;2023-02-12T08:14:12;102747.50;;;8.58;100.00
21273;BME280;36726;52.328;10.552;2023-02-12T08:16:40;102751.28;;;8.63;100.00
21273;BME280;36726;52.328;10.552;2023-02-12T08:19:08;102749.63;;;8.65;100.00
21273;BME280;36726;52.328;10.552;2023-02-12T08:21:45;102756.75;;;8.66;100.00
21273;BME280;36726;52.328;10.552;2023-02-12T08:24:14;102756.91;;;8.69;100.00
21273;BME280;36726;52.328;10.552;2023-02-12T08:26:40;102754.41;;;8.72;100.00
21273;BME280;36726;52.328;10.552;2023-02-12T08:29:10;102757.41;;;8.78;100.00
21273;BME280;36726;52.328;10.552;2023-02-12T08:31:39;102753.19;;;8.82;100.00
21273;BME280;36726;52.328;10.552;2023-02-12T08:34:15;102756.84;;;8.84;100.00
21273;BME280;36726;52.328;10.552;2023-02-12T08:36:43;102770.03;;;8.84;100.00
21273;BME280;36726;52.328;10.552;2023-02-12T08:39:10;102764.03;;;8.86;100.00
21273;BME280;36726;52.328;10.552;2023-02-12T08:41:37;102772.19;;;8.91;100.00
21273;BME280;36726;52.328;10.552;2023-02-12T08:44:04;102766.25;;;8.95;100.00
21273;BME280;36726;52.328;10.552;2023-02-12T08:46:33;102774.25;;;8.96;100.00
21273;BME280;36726;52.328;10.552;2023-02-12T08:49:21;102767.31;;;8.98;100.00
21273;BME280;36726;52.328;10.552;2023-02-12T08:51:51;102770.38;;;9.06;100.00
21273;BME280;36726;52.328;10.552;2023-02-12T08:54:23;102774.09;;;9.09;100.00
21273;BME280;36726;52.328;10.552;2023-02-12T08:56:54;102776.72;;;9.09;100.00
21273;BME280;36726;52.328;10.552;2023-02-12T08:59:25;102785.66;;;9.11;100.00
21273;BME280;36726;52.328;10.552;2023-02-12T09:01:52;102788.44;;;9.14;100.00
21273;BME280;36726;52.328;10.552;2023-02-12T09:04:25;102793.63;;;9.13;100.00
21273;BME280;36726;52.328;10.552;2023-02-12T09:06:52;102795.44;;;9.14;100.00
21273;BME280;36726;52.328;10.552;2023-02-12T09:09:19;102794.94;;;9.21;100.00
21273;BME280;36726;52.328;10.552;2023-02-12T09:11:49;102798.66;;;9.24;100.00
21273;BME280;36726;52.328;10.552;2023-02-12T09:14:16;102799.50;;;9.23;100.00
21273;BME280;36726;52.328;10.552;2023-02-12T09:16:44;102803.94;;;9.24;100.00
21273;BME280;36726;52.328;10.552;2023-02-12T09:19:12;102805.84;;;9.27;100.00
21273;BME280;36726;52.328;10.552;2023-02-12T09:21:39;102811.78;;;9.23;100.00
21273;BME280;36726;52.328;10.552;2023-02-12T09:24:06;102817.81;;;9.20;100.00
21273;BME280;36726;52.328;10.552;2023-02-12T09:26:33;102815.25;;;9.22;100.00
21273;BME280;36726;52.328;10.552;2023-02-12T09:29:02;102816.97;;;9.21;100.00
21273;BME280;36726;52.328;10.552;2023-02-12T09:31:32;102819.78;;;9.24;100.00
21273;BME280;36726;52.328;10.552;2023-02-12T09:34:04;102820.28;;;9.17;100.00
21273;BME280;36726;52.328;10.552;2023-02-12T09:36:32;102818.97;;;9.09;100.00
21273;BME280;36726;52.328;10.552;2023-02-12T09:38:59;102821.41;;;9.06;100.00
21273;BME280;36726;52.328;10.552;2023-02-12T09:44:21;102834.31;;;9.00;100.00
21273;BME280;36726;52.328;10.552;2023-02-12T09:47:08;102826.03;;;8.94;100.00
21273;BME280;36726;52.328;10.552;2023-02-12T09:52:13;102830.84;;;9.01;100.00
21273;BME280;36726;52.328;10.552;2023-02-12T09:54:41;102829.84;;;9.15;100.00
21273;BME280;36726;52.328;10.552;2023-02-12T09:57:35;102818.81;;;9.38;100.00
21273;BME280;36726;52.328;10.552;2023-02-12T10:00:15;102823.22;;;9.56;100.00
21273;BME280;36726;52.328;10.552;2023-02-12T10:02:43;102811.50;;;9.67;100.00
21273;BME280;36726;52.328;10.552;2023-02-12T10:05:24;102830.00;;;9.67;100.00
21273;BME280;36726;52.328;10.552;2023-02-12T10:10:49;102834.63;;;9.71;100.00
21273;BME280;36726;52.328;10.552;2023-02-12T10:13:30;102829.41;;;9.72;100.00
21273;BME280;36726;52.328;10.552;2023-02-12T10:18:58;102838.84;;;9.67;100.00
21273;BME280;36726;52.328;10.552;2023-02-12T10:24:48;102841.22;;;9.63;100.00
21273;BME280;36726;52.328;10.552;2023-02-12T10:27:30;102847.28;;;9.60;100.00
21273;BME280;36726;52.328;10.552;2023-02-12T10:30:03;102846.19;;;9.57;100.00
21273;BME280;36726;52.328;10.552;2023-02-12T10:32:39;102844.50;;;9.59;100.00
21273;BME280;36726;52.328;10.552;2023-02-12T10:35:14;102841.97;;;9.60;100.00
21273;BME280;36726;52.328;10.552;2023-02-12T10:38:03;102836.44;;;9.56;100.00
21273;BME280;36726;52.328;10.552;2023-02-12T10:40:34;102846.94;;;9.54;100.00
21273;BME280;36726;52.328;10.552;2023-02-12T10:43:03;102849.31;;;9.50;100.00
21273;BME280;36726;52.328;10.552;2023-02-12T10:45:32;102845.53;;;9.44;100.00
21273;BME280;36726;52.328;10.552;2023-02-12T10:48:06;102847.16;;;9.42;100.00
21273;BME280;36726;52.328;10.552;2023-02-12T10:50:43;102851.47;;;9.40;100.00
21273;BME280;36726;52.328;10.552;2023-02-12T10:53:33;102848.81;;;9.40;100.00
21273;BME280;36726;52.328;10.552;2023-02-12T10:56:18;102842.81;;;9.43;100.00
21273;BME280;36726;52.328;10.552;2023-02-12T11:01:20;102845.28;;;9.56;100.00
21273;BME280;36726;52.328;10.552;2023-02-12T11:03:47;102847.84;;;9.55;100.00
21273;BME280;36726;52.328;10.552;2023-02-12T11:06:29;102851.22;;;9.52;100.00
21273;BME280;36726;52.328;10.552;2023-02-12T11:08:57;102838.75;;;9.50;100.00
21273;BME280;36726;52.328;10.552;2023-02-12T11:11:29;102838.75;;;9.50;100.00
21273;BME280;36726;52.328;10.552;2023-02-12T11:14:19;102849.31;;;9.50;100.00
21273;BME280;36726;52.328;10.552;2023-02-12T11:16:53;102843.22;;;9.51;100.00
21273;BME280;36726;52.328;10.552;2023-02-12T11:19:26;102842.50;;;9.53;100.00
21273;BME280;36726;52.328;10.552;2023-02-12T11:22:06;102841.88;;;9.59;100.00
21273;BME280;36726;52.328;10.552;2023-02-12T11:24:36;102834.94;;;9.61;100.00
21273;BME280;36726;52.328;10.552;2023-02-12T11:29:43;102837.44;;;9.58;100.00
21273;BME280;36726;52.328;10.552;2023-02-12T11:32:17;102834.13;;;9.62;100.00
21273;BME280;36726;52.328;10.552;2023-02-12T11:35:15;102837.59;;;9.61;100.00
21273;BME280;36726;52.328;10.552;2023-02-12T11:37:45;102827.72;;;9.57;100.00
21273;BME280;36726;52.328;10.552;2023-02-12T11:42:56;102819.00;;;9.59;100.00
21273;BME280;36726;52.328;10.552;2023-02-12T11:45:33;102822.56;;;9.60;100.00
21273;BME280;36726;52.328;10.552;2023-02-12T11:48:00;102813.91;;;9.62;100.00
21273;BME280;36726;52.328;10.552;2023-02-12T11:50:29;102809.50;;;9.63;100.00
21273;BME280;36726;52.328;10.552;2023-02-12T11:53:03;102802.41;;;9.62;100.00
21273;BME280;36726;52.328;10.552;2023-02-12T11:55:35;102809.34;;;9.60;100.00
21273;BME280;36726;52.328;10.552;2023-02-12T11:58:15;102815.38;;;9.57;100.00
21273;BME280;36726;52.328;10.552;2023-02-12T12:01:02;102806.56;;;9.57;100.00
21273;BME280;36726;52.328;10.552;2023-02-12T12:03:58;102808.13;;;9.53;100.00
21273;BME280;36726;52.328;10.552;2023-02-12T12:06:32;102791.38;;;9.53;100.00
21273;BME280;36726;52.328;10.552;2023-02-12T12:11:40;102798.63;;;9.57;100.00
21273;BME280;36726;52.328;10.552;2023-02-12T12:14:23;102790.94;;;9.61;100.00
21273;BME280;36726;52.328;10.552;2023-02-12T12:17:02;102798.06;;;9.62;100.00
21273;BME280;36726;52.328;10.552;2023-02-12T12:20:15;102799.13;;;9.66;100.00
21273;BME280;36726;52.328;10.552;2023-02-12T12:22:51;102798.19;;;9.65;100.00
21273;BME280;36726;52.328;10.552;2023-02-12T12:27:56;102791.84;;;9.62;100.00
21273;BME280;36726;52.328;10.552;2023-02-12T12:34:12;102801.16;;;9.71;100.00
21273;BME280;36726;52.328;10.552;2023-02-12T12:51:25;102782.25;;;9.97;100.00
21273;BME280;36726;52.328;10.552;2023-02-12T12:57:00;102773.91;;;10.07;100.00
21273;BME280;36726;52.328;10.552;2023-02-12T12:59:44;102769.22;;;10.18;100.00
21273;BME280;36726;52.328;10.552;2023-02-12T13:05:40;102765.56;;;10.33;100.00
21273;BME280;36726;52.328;10.552;2023-02-12T13:11:20;102761.03;;;10.31;100.00
21273;BME280;36726;52.328;10.552;2023-02-12T13:13:58;102757.56;;;10.32;100.00
21273;BME280;36726;52.328;10.552;2023-02-12T13:16:32;102761.19;;;10.34;100.00
21273;BME280;36726;52.328;10.552;2023-02-12T13:19:21;102755.19;;;10.38;100.00
21273;BME280;36726;52.328;10.552;2023-02-12T13:22:05;102751.75;;;10.39;100.00
21273;BME280;36726;52.328;10.552;2023-02-12T13:24:54;102748.25;;;10.40;100.00
21273;BME280;36726;52.328;10.552;2023-02-12T13:27:26;102749.03;;;10.37;100.00
21273;BME280;36726;52.328;10.552;2023-02-12T13:32:35;102745.31;;;10.34;100.00
21273;BME280;36726;52.328;10.552;2023-02-12T13:35:05;102750.31;;;10.28;100.00
21273;BME280;36726;52.328;10.552;2023-02-12T13:37:44;102741.47;;;10.27;100.00
21273;BME280;36726;52.328;10.552;2023-02-12T13:40:19;102746.84;;;10.29;100.00
21273;BME280;36726;52.328;10.552;2023-02-12T13:42:54;102745.09;;;10.29;100.00
21273;BME280;36726;52.328;10.552;2023-02-12T13:45:34;102747.81;;;10.31;100.00
21273;BME280;36726;52.328;10.552;2023-02-12T13:51:42;102742.06;;;10.39;100.00
21273;BME280;36726;52.328;10.552;2023-02-12T13:54:32;102739.31;;;10.38;100.00
21273;BME280;36726;52.328;10.552;2023-02-12T13:57:08;102743.75;;;10.37;100.00
21273;BME280;36726;52.328;10.552;2023-02-12T13:59:39;102740.31;;;10.40;100.00
21273;BME280;36726;52.328;10.552;2023-02-12T14:04:55;102740.06;;;10.53;100.00
21273;BME280;36726;52.328;10.552;2023-02-12T14:07:43;102742.66;;;10.52;100.00
21273;BME280;36726;52.328;10.552;2023-02-12T14:10:39;102734.34;;;10.44;100.00
21273;BME280;36726;52.328;10.552;2023-02-12T14:13:16;102730.72;;;10.42;100.00
21273;BME280;36726;52.328;10.552;2023-02-12T14:15:48;102728.38;;;10.48;100.00
21273;BME280;36726;52.328;10.552;2023-02-12T14:23:40;102727.13;;;10.59;100.00
21273;BME280;36726;52.328;10.552;2023-02-12T14:28:56;102730.41;;;10.54;100.00
21273;BME280;36726;52.328;10.552;2023-02-12T14:31:36;102740.06;;;10.53;100.00
21273;BME280;36726;52.328;10.552;2023-02-12T14:41:35;102741.78;;;10.53;100.00
21273;BME280;36726;52.328;10.552;2023-02-12T14:46:57;102741.47;;;10.45;100.00
21273;BME280;36726;52.328;10.552;2023-02-12T14:49:33;102736.00;;;10.42;100.00
21273;BME280;36726;52.328;10.552;2023-02-12T14:54:45;102736.91;;;10.42;100.00
21273;BME280;36726;52.328;10.552;2023-02-12T14:57:34;102737.59;;;10.38;100.00
21273;BME280;36726;52.328;10.552;2023-02-12T15:02:33;102737.47;;;10.35;100.00
21273;BME280;36726;52.328;10.552;2023-02-12T15:05:10;102733.09;;;10.36;100.00